Sausalito, CA (94965)

11:02 AM PDT on May 28, 2015 (GMT -0700)
Tam Valley | | Change Station
CLOSE
Current Station
Personal Weather Station
Location: Mill Valley, CA
Elevation: 177 ft
Nearby Weather Stations

Elev 177 ft 37.88 °N, 122.54 °W | Updated 9 minutes ago

Overcast
Overcast
58.3 °F
Feels Like 58.3 °F
N
4.2
Wind Variable Wind from ESE

Today
High -- | Low -- °F
--% Chance of Precip.
Yesterday
High -- | Low -- °F
Precip. -- in
5:51 AM 8:23 PM
Waxing Gibbous, 77% visible
Pressure 30.06 in
Visibility 10.0 miles
Clouds Few 400 ft
Scattered Clouds 800 ft
Overcast 1000 ft
Dew Point 52 °F
Humidity 80%
Rainfall 0.00 in
Snow Depth Not available.
UV 3 out of 12
Pollen 5.80 out of 12
Air Quality Not available.
Flu Activity Sporadic
METAR KSFO 281756Z 27012KT 10SM FEW004 SCT008 OVC010 13/09 A3006 RMK AO2 SLP180 T01330094 10139 20111 51003

More Conditions Fewer Conditions

Pressure 30.06 in
Visibility 10.0 miles
Clouds Few 400 ft
Scattered Clouds 800 ft
Overcast 1000 ft
Dew Point 52 °F
Humidity 80%
Rainfall 0.00 in
Snow Depth Not available.
UV 3 out of 12
Pollen 5.80 out of 12
Air Quality Not available.
Flu Activity Sporadic
METAR KSFO 281756Z 27012KT 10SM FEW004 SCT008 OVC010 13/09 A3006 RMK AO2 SLP180 T01330094 10139 20111 51003

More Conditions Fewer Conditions

10-Day Weather Forecast

Almanac

Astronomy

May. 28, 2015 Rise Set
Actual Time
Civil Twilight
Nautical Twilight
Astronomical Twilight
Moon
Length of Visible Light
Length of Day
Tomorrow will be .
, % of the Moon is Illuminated

Today's Extremes

State Highs State Lows

Community

WunderPhotos

Upload Photos

1,825,007 photos uploaded!

WunderBlogs® & News

Nearby

Air Quality

  Air Quality AQ Index Pollutant
Not available.

Snow Depth

Station Depth Elevation

Earthquake Activity

City Distance Mag. Time & Date
Minimum magnitude displayed is 2.5.

Coastal Water Temperatures

Place Temperature

Stations

Nearby Weather Stations

Station Location Temp. Windchill Dew Point Humidity Wind Precip. Elev Updated Type